createdAt,value
2023-01-19T00:01:39.056Z,3.22
2023-01-19T00:06:41.972Z,3.22
2023-01-19T00:11:45.105Z,3.19
2023-01-19T00:16:48.334Z,3.16
2023-01-19T00:21:51.376Z,3.18
2023-01-19T00:26:54.419Z,3.21
2023-01-19T00:31:57.382Z,3.20
2023-01-19T00:37:03.175Z,3.16
2023-01-19T00:42:25.097Z,3.11
2023-01-19T00:47:27.900Z,3.04
2023-01-19T00:52:31.139Z,3.00
2023-01-19T00:57:34.429Z,2.93
2023-01-19T01:02:38.713Z,2.84
2023-01-19T01:07:44.548Z,2.83
2023-01-19T01:13:20.397Z,2.74
2023-01-19T01:18:12.958Z,2.67
2023-01-19T01:23:15.954Z,2.60
2023-01-19T01:28:18.976Z,2.53
2023-01-19T01:33:41.076Z,2.50
2023-01-19T01:38:45.024Z,2.47
2023-01-19T01:43:58.280Z,2.42
2023-01-19T01:49:04.468Z,2.38
2023-01-19T01:54:37.232Z,2.32
2023-01-19T01:59:45.227Z,2.22
2023-01-19T02:04:55.217Z,2.22
2023-01-19T02:10:16.360Z,2.20
2023-01-19T02:15:20.611Z,2.15
2023-01-19T02:20:27.872Z,2.08
2023-01-19T02:25:31.209Z,2.03
2023-01-19T02:30:37.363Z,1.98
2023-01-19T02:35:41.110Z,1.92
2023-01-19T02:40:46.131Z,1.92
2023-01-19T02:45:50.067Z,1.93
2023-01-19T02:51:04.448Z,1.90
2023-01-19T02:56:43.312Z,1.87
2023-01-19T03:02:40.098Z,1.86
2023-01-19T03:08:30.677Z,1.83
2023-01-19T03:13:45.653Z,1.79
2023-01-19T03:19:03.109Z,1.77
2023-01-19T03:24:08.749Z,1.75
2023-01-19T03:29:15.317Z,1.74
2023-01-19T03:34:23.061Z,1.74
2023-01-19T03:39:27.921Z,1.73
2023-01-19T03:44:37.243Z,1.69
2023-01-19T03:49:44.048Z,1.57
2023-01-19T03:54:47.009Z,1.48
2023-01-19T03:59:50.074Z,1.39
2023-01-19T04:04:53.091Z,1.34
2023-01-19T04:09:56.085Z,1.27
2023-01-19T04:14:58.975Z,1.24
2023-01-19T04:20:02.059Z,1.20
2023-01-19T04:25:06.541Z,1.15
2023-01-19T04:30:10.552Z,1.14
2023-01-19T04:35:13.408Z,1.13
2023-01-19T04:40:17.670Z,1.16
2023-01-19T04:45:20.640Z,1.16
2023-01-19T04:50:23.783Z,1.21
2023-01-19T04:55:26.631Z,1.26
2023-01-19T05:00:29.699Z,1.28
2023-01-19T05:05:33.343Z,1.27
2023-01-19T05:10:36.608Z,1.27
2023-01-19T05:15:39.588Z,1.32
2023-01-19T05:20:43.076Z,1.33
2023-01-19T05:25:46.061Z,1.41
2023-01-19T05:30:52.156Z,1.47
2023-01-19T05:35:56.008Z,1.50
2023-01-19T05:40:59.159Z,1.53
2023-01-19T05:46:05.475Z,1.57
2023-01-19T05:51:09.192Z,1.60
2023-01-19T05:56:12.213Z,1.62
2023-01-19T06:01:15.291Z,1.64
2023-01-19T06:06:18.786Z,1.62
2023-01-19T06:11:22.236Z,1.64
2023-01-19T06:16:25.416Z,1.63
2023-01-19T06:21:29.532Z,1.62
2023-01-19T06:26:32.635Z,1.61
2023-01-19T06:31:36.032Z,1.60
2023-01-19T06:36:39.433Z,1.64
2023-01-19T06:41:42.846Z,1.64
2023-01-19T06:46:45.811Z,1.66
2023-01-19T06:51:48.761Z,1.69
2023-01-19T06:56:52.211Z,1.75
2023-01-19T07:01:56.691Z,1.77
2023-01-19T07:06:59.806Z,1.82
2023-01-19T07:12:02.887Z,1.83
2023-01-19T07:17:06.012Z,1.87
2023-01-19T07:22:09.464Z,1.93
2023-01-19T07:27:12.443Z,1.99
2023-01-19T07:32:15.447Z,2.06
2023-01-19T07:37:18.338Z,2.11
2023-01-19T07:42:21.539Z,2.17
2023-01-19T07:47:24.716Z,2.24
2023-01-19T07:52:27.774Z,2.28
2023-01-19T07:57:31.207Z,2.29
2023-01-19T08:02:36.030Z,2.28
2023-01-19T08:07:39.030Z,2.26
2023-01-19T08:12:42.715Z,2.25
2023-01-19T08:17:45.778Z,2.28
2023-01-19T08:22:49.267Z,2.30
2023-01-19T08:27:55.496Z,2.31
2023-01-19T08:33:04.363Z,2.32
2023-01-19T08:38:09.845Z,2.36
2023-01-19T08:43:16.360Z,2.40
2023-01-19T08:48:24.768Z,2.44
2023-01-19T08:53:27.720Z,2.48
2023-01-19T08:58:30.661Z,2.50
2023-01-19T09:03:33.647Z,2.49
2023-01-19T09:08:36.732Z,2.47
2023-01-19T09:13:41.380Z,2.42
2023-01-19T09:18:46.017Z,2.44
2023-01-19T09:23:49.925Z,2.42
2023-01-19T09:28:53.017Z,2.42
2023-01-19T09:33:56.297Z,2.41
2023-01-19T09:38:59.330Z,2.38
2023-01-19T09:44:02.518Z,2.35
2023-01-19T09:49:31.926Z,2.35
2023-01-19T09:54:56.764Z,2.34
2023-01-19T09:59:59.988Z,2.32
2023-01-19T10:05:26.136Z,2.30
2023-01-19T10:10:32.259Z,2.28
2023-01-19T10:15:59.851Z,2.25
2023-01-19T10:21:14.568Z,2.19
2023-01-19T10:26:26.681Z,2.14
2023-01-19T10:31:29.748Z,2.08
2023-01-19T10:36:40.099Z,2.06
2023-01-19T10:41:49.589Z,2.03
2023-01-19T10:46:55.507Z,2.00
2023-01-19T10:52:00.049Z,1.95
2023-01-19T10:57:10.128Z,1.92
2023-01-19T11:02:17.725Z,1.90
2023-01-19T11:07:26.759Z,1.86
2023-01-19T11:12:31.020Z,1.83
2023-01-19T11:17:34.182Z,1.81
2023-01-19T11:22:37.241Z,1.76
2023-01-19T11:27:52.056Z,1.71
2023-01-19T11:32:56.321Z,1.71
2023-01-19T11:38:23.362Z,1.73
2023-01-19T11:43:43.464Z,1.76
2023-01-19T11:49:08.462Z,1.82
2023-01-19T11:54:25.714Z,1.94
2023-01-19T11:59:28.995Z,2.03
2023-01-19T12:04:39.485Z,2.09
2023-01-19T12:09:46.286Z,2.16
2023-01-19T12:14:57.755Z,2.26
2023-01-19T12:20:25.678Z,2.29
2023-01-19T12:26:05.314Z,2.28
2023-01-19T12:31:09.334Z,2.28
2023-01-19T12:36:30.547Z,2.29
2023-01-19T12:41:41.498Z,2.19
2023-01-19T12:46:52.241Z,2.15
2023-01-19T12:52:13.492Z,2.14
2023-01-19T12:57:58.889Z,2.08
2023-01-19T13:03:18.467Z,2.04
2023-01-19T13:08:29.917Z,1.99
2023-01-19T13:13:44.600Z,1.96
2023-01-19T13:19:05.820Z,1.94
2023-01-19T13:24:17.631Z,1.91
2023-01-19T13:29:34.562Z,1.95
2023-01-19T13:34:49.523Z,1.94
2023-01-19T13:39:54.966Z,1.88
2023-01-19T13:45:15.973Z,1.78
2023-01-19T13:50:35.506Z,1.67
2023-01-19T13:55:38.477Z,1.60
2023-01-19T14:00:46.522Z,1.54
2023-01-19T14:05:54.980Z,1.52
2023-01-19T14:11:00.047Z,1.52
2023-01-19T14:16:14.834Z,1.47
2023-01-19T14:21:18.661Z,1.44
2023-01-19T14:26:40.259Z,1.37
2023-01-19T14:31:47.152Z,1.31
2023-01-19T14:36:51.750Z,1.29
2023-01-19T14:41:57.498Z,1.23
2023-01-19T14:47:01.309Z,1.16
2023-01-19T14:52:31.859Z,1.10
2023-01-19T14:57:36.869Z,1.02
2023-01-19T15:02:39.834Z,0.95
2023-01-19T15:07:45.826Z,0.92
2023-01-19T15:12:51.262Z,0.92
2023-01-19T15:17:56.336Z,0.91
2023-01-19T15:22:59.321Z,0.91
2023-01-19T15:28:04.152Z,0.90
2023-01-19T15:33:14.826Z,0.88
2023-01-19T15:38:17.810Z,0.85
2023-01-19T15:43:21.635Z,0.85
2023-01-19T15:48:25.739Z,0.84
2023-01-19T15:53:28.510Z,0.83
2023-01-19T15:58:31.443Z,0.80
2023-01-19T16:03:34.399Z,0.82
2023-01-19T16:08:38.070Z,0.83
2023-01-19T16:13:44.041Z,0.82
2023-01-19T16:18:47.545Z,0.80
2023-01-19T16:23:51.096Z,0.82
2023-01-19T16:28:58.052Z,0.85
2023-01-19T16:34:01.029Z,0.87
2023-01-19T16:39:15.850Z,0.86
2023-01-19T16:44:18.921Z,0.87
2023-01-19T16:49:28.143Z,0.87
2023-01-19T16:54:32.559Z,0.85
2023-01-19T16:59:35.764Z,0.82
2023-01-19T17:04:38.485Z,0.80
2023-01-19T17:09:41.374Z,0.77
2023-01-19T17:14:47.316Z,0.77
2023-01-19T17:19:50.397Z,0.73
2023-01-19T17:24:53.360Z,0.73
2023-01-19T17:29:56.461Z,0.71
2023-01-19T17:34:59.875Z,0.70
2023-01-19T17:40:03.009Z,0.67
2023-01-19T17:45:06.276Z,0.68
2023-01-19T17:50:10.205Z,0.66
2023-01-19T17:55:13.215Z,0.62
2023-01-19T18:00:17.154Z,0.61
2023-01-19T18:05:20.609Z,0.56
2023-01-19T18:10:23.600Z,0.50
2023-01-19T18:15:26.636Z,0.48
2023-01-19T18:20:31.554Z,0.43
2023-01-19T18:25:34.664Z,0.36
2023-01-19T18:30:37.986Z,0.34
2023-01-19T18:35:41.007Z,0.37
2023-01-19T18:40:43.972Z,0.40
2023-01-19T18:45:48.200Z,0.40
2023-01-19T18:50:51.599Z,0.38
2023-01-19T18:55:57.428Z,0.35
2023-01-19T19:01:01.734Z,0.34
2023-01-19T19:06:04.904Z,0.32
2023-01-19T19:11:08.996Z,0.32
2023-01-19T19:16:13.529Z,0.30
2023-01-19T19:21:18.939Z,0.31
2023-01-19T19:26:23.502Z,0.31
2023-01-19T19:31:28.116Z,0.30
2023-01-19T19:36:33.523Z,0.30
2023-01-19T19:41:38.385Z,0.26
2023-01-19T19:46:41.449Z,0.28
2023-01-19T19:51:44.481Z,0.25
2023-01-19T19:56:50.440Z,0.24
2023-01-19T20:01:54.624Z,0.23
2023-01-19T20:06:59.243Z,0.19
2023-01-19T20:12:02.127Z,0.17
2023-01-19T20:17:05.824Z,0.14
2023-01-19T20:22:09.065Z,0.14
2023-01-19T20:27:11.917Z,0.10
2023-01-19T20:32:14.942Z,0.08
2023-01-19T20:37:17.901Z,0.03
2023-01-19T20:42:20.859Z,0.03
2023-01-19T20:47:23.849Z,-0.01
2023-01-19T20:52:26.893Z,-0.05
2023-01-19T20:57:29.981Z,-0.09
2023-01-19T21:02:33.100Z,-0.12
2023-01-19T21:07:36.340Z,-0.12
2023-01-19T21:12:39.307Z,-0.11
2023-01-19T21:17:43.746Z,-0.07
2023-01-19T21:22:48.071Z,-0.06
2023-01-19T21:27:51.034Z,-0.02
2023-01-19T21:32:55.730Z,0.03
2023-01-19T21:37:59.187Z,0.02
2023-01-19T21:43:02.154Z,0.00
2023-01-19T21:48:05.278Z,0.01
2023-01-19T21:53:11.296Z,-0.01
2023-01-19T21:58:14.251Z,-0.05
2023-01-19T22:03:17.481Z,-0.06
2023-01-19T22:08:20.381Z,-0.04
2023-01-19T22:13:23.565Z,0.02
2023-01-19T22:18:26.842Z,0.07
2023-01-19T22:23:29.937Z,0.08
2023-01-19T22:28:33.725Z,0.15
2023-01-19T22:33:37.125Z,0.20
2023-01-19T22:38:40.908Z,0.21
2023-01-19T22:43:45.691Z,0.19
2023-01-19T22:48:49.518Z,0.11
2023-01-19T22:53:52.705Z,0.01
2023-01-19T22:58:56.486Z,-0.11
2023-01-19T23:04:01.451Z,-0.19
2023-01-19T23:09:12.791Z,-0.27
2023-01-19T23:14:19.904Z,-0.34
2023-01-19T23:19:22.747Z,-0.39
2023-01-19T23:24:25.665Z,-0.47
2023-01-19T23:29:28.643Z,-0.49
2023-01-19T23:34:31.628Z,-0.48
2023-01-19T23:39:35.056Z,-0.44
2023-01-19T23:44:37.904Z,-0.42
2023-01-19T23:49:40.869Z,-0.40
2023-01-19T23:54:45.085Z,-0.36
2023-01-19T23:59:47.913Z,-0.31
